createdAt,value
2023-03-26T00:03:00.364Z,6.20
2023-03-26T00:06:16.022Z,6.16
2023-03-26T00:09:18.230Z,6.10
2023-03-26T00:12:19.660Z,6.05
2023-03-26T00:15:21.095Z,6.05
2023-03-26T00:18:22.571Z,6.02
2023-03-26T00:21:26.912Z,6.03
2023-03-26T00:24:28.301Z,6.00
2023-03-26T00:27:29.761Z,6.00
2023-03-26T00:30:32.914Z,5.98
2023-03-26T00:33:34.394Z,5.97
2023-03-26T00:36:35.990Z,5.96
2023-03-26T00:39:37.725Z,5.95
2023-03-26T00:42:39.185Z,5.95
2023-03-26T00:45:40.575Z,5.89
2023-03-26T00:48:45.487Z,5.88
2023-03-26T00:51:47.393Z,5.84
2023-03-26T00:54:51.958Z,5.84
2023-03-26T00:57:53.388Z,5.74
2023-03-26T01:00:59.841Z,5.68
2023-03-26T01:04:20.213Z,5.66
2023-03-26T01:07:25.655Z,5.66
2023-03-26T01:10:27.257Z,5.69
2023-03-26T01:13:32.763Z,5.67
2023-03-26T01:16:43.061Z,5.67
2023-03-26T01:19:57.374Z,5.68
2023-03-26T01:23:03.222Z,5.67
2023-03-26T01:26:30.430Z,5.63
2023-03-26T01:29:37.711Z,5.60
2023-03-26T01:32:51.943Z,5.63
2023-03-26T01:36:09.916Z,5.59
2023-03-26T01:39:23.960Z,5.56
2023-03-26T01:42:36.234Z,5.59
2023-03-26T01:45:41.111Z,5.54
2023-03-26T01:48:44.949Z,5.53
2023-03-26T01:51:46.572Z,5.54
2023-03-26T01:54:49.010Z,5.55
2023-03-26T01:58:08.428Z,5.53
2023-03-26T02:01:18.043Z,5.54
2023-03-26T02:04:29.947Z,5.52
2023-03-26T02:07:51.151Z,5.49
2023-03-26T02:10:58.542Z,5.44
2023-03-26T02:14:00.426Z,5.47
2023-03-26T02:17:01.905Z,5.39
2023-03-26T02:20:03.655Z,5.39
2023-03-26T02:23:05.253Z,5.40
2023-03-26T02:26:09.287Z,5.40
2023-03-26T02:29:18.063Z,5.32
2023-03-26T02:32:19.482Z,5.35
2023-03-26T02:35:22.204Z,5.34
2023-03-26T02:38:29.733Z,5.33
2023-03-26T02:41:31.280Z,5.21
2023-03-26T02:44:36.687Z,5.17
2023-03-26T02:47:58.406Z,5.10
2023-03-26T02:51:20.395Z,5.05
2023-03-26T02:54:35.672Z,4.97
2023-03-26T02:57:57.389Z,4.89
2023-03-26T03:01:05.413Z,4.90
2023-03-26T03:04:15.479Z,4.91
2023-03-26T03:07:16.895Z,4.88
2023-03-26T03:10:18.804Z,4.90
2023-03-26T03:13:40.082Z,4.87
2023-03-26T03:16:42.138Z,4.85
2023-03-26T03:19:45.332Z,4.73
2023-03-26T03:22:46.817Z,4.82
2023-03-26T03:25:48.651Z,4.88
2023-03-26T03:28:50.487Z,4.87
2023-03-26T03:31:52.262Z,4.87
2023-03-26T03:35:10.853Z,4.86
2023-03-26T03:38:13.915Z,4.84
2023-03-26T03:41:22.104Z,4.86
2023-03-26T03:44:23.612Z,4.87
2023-03-26T03:47:25.125Z,4.87
2023-03-26T03:50:26.602Z,4.90
2023-03-26T03:53:42.757Z,4.89
2023-03-26T03:56:46.089Z,4.85
2023-03-26T04:00:07.388Z,4.83
2023-03-26T04:03:18.136Z,4.78
2023-03-26T04:06:19.681Z,4.73
2023-03-26T04:09:25.552Z,4.69
2023-03-26T04:12:31.291Z,4.59
2023-03-26T04:15:36.036Z,4.53
2023-03-26T04:18:38.073Z,4.51
2023-03-26T04:21:47.916Z,4.51
2023-03-26T04:24:49.632Z,4.53
2023-03-26T04:28:07.168Z,4.48
2023-03-26T04:31:25.802Z,4.47
2023-03-26T04:34:27.452Z,4.50
2023-03-26T04:37:46.625Z,4.53
2023-03-26T04:40:51.733Z,4.53
2023-03-26T04:44:13.787Z,4.47
2023-03-26T04:47:29.845Z,4.39
2023-03-26T04:50:31.263Z,4.31
2023-03-26T04:53:35.182Z,4.24
2023-03-26T04:57:02.287Z,4.14
2023-03-26T05:00:06.745Z,4.06
2023-03-26T05:03:13.456Z,4.07
2023-03-26T05:06:16.270Z,4.01
2023-03-26T05:09:17.680Z,3.96
2023-03-26T05:12:49.120Z,3.95
2023-03-26T05:15:55.160Z,4.00
2023-03-26T05:19:25.654Z,4.00
2023-03-26T05:22:27.693Z,3.98
2023-03-26T05:25:49.331Z,3.97
2023-03-26T05:28:55.525Z,3.99
2023-03-26T05:32:17.196Z,4.03
2023-03-26T05:35:20.086Z,4.06
2023-03-26T05:38:21.691Z,4.13
2023-03-26T05:41:23.185Z,4.22
2023-03-26T05:44:25.320Z,4.24
2023-03-26T05:47:27.084Z,4.30
2023-03-26T05:50:28.566Z,4.29
2023-03-26T05:53:34.392Z,4.33
2023-03-26T05:57:07.863Z,4.30
2023-03-26T06:00:28.511Z,4.37
2023-03-26T06:03:39.527Z,4.38
2023-03-26T06:06:48.176Z,4.40
2023-03-26T06:09:51.415Z,4.42
2023-03-26T06:12:55.381Z,4.45
2023-03-26T06:15:57.696Z,4.56
2023-03-26T06:19:04.636Z,4.63
2023-03-26T06:22:24.631Z,4.64
2023-03-26T06:25:45.042Z,4.70
2023-03-26T06:29:05.135Z,4.78
2023-03-26T06:32:24.520Z,4.90
2023-03-26T06:35:34.249Z,4.95
2023-03-26T06:38:35.824Z,5.09
2023-03-26T06:41:39.710Z,5.23
2023-03-26T06:44:59.590Z,5.41
2023-03-26T06:48:09.786Z,5.58
2023-03-26T06:51:37.482Z,5.59
2023-03-26T06:54:57.719Z,5.59
2023-03-26T06:58:19.318Z,5.57
2023-03-26T07:01:39.057Z,5.73
2023-03-26T07:04:58.810Z,5.86
2023-03-26T07:08:19.067Z,5.83
2023-03-26T07:11:39.040Z,5.93
2023-03-26T07:14:49.231Z,5.81
2023-03-26T07:18:11.014Z,6.09
2023-03-26T07:21:15.039Z,6.77
2023-03-26T07:24:17.130Z,7.31
2023-03-26T07:28:21.719Z,7.65
2023-03-26T07:31:50.996Z,6.93
2023-03-26T07:35:21.492Z,6.54
2023-03-26T07:39:27.547Z,6.32
2023-03-26T07:43:13.152Z,6.32
2023-03-26T07:46:28.193Z,6.32
2023-03-26T07:50:14.951Z,6.23
2023-03-26T07:53:35.516Z,6.20
2023-03-26T07:57:02.032Z,6.15
2023-03-26T08:00:15.203Z,6.17
2023-03-26T08:03:41.221Z,6.28
2023-03-26T08:07:07.292Z,6.32
2023-03-26T08:10:37.516Z,6.43
2023-03-26T08:13:52.300Z,6.53
2023-03-26T08:17:05.867Z,6.68
2023-03-26T08:20:10.347Z,6.62
2023-03-26T08:23:29.203Z,6.74
2023-03-26T08:26:47.485Z,6.89
2023-03-26T08:30:03.384Z,6.84
2023-03-26T08:33:13.515Z,6.92
2023-03-26T08:36:14.969Z,7.04
2023-03-26T08:39:16.530Z,7.05
2023-03-26T08:42:20.836Z,7.14
2023-03-26T08:45:38.620Z,7.11
2023-03-26T08:49:17.621Z,6.97
2023-03-26T08:52:30.811Z,7.14
2023-03-26T08:55:57.281Z,7.42
2023-03-26T08:59:43.485Z,7.94
2023-03-26T09:03:05.238Z,8.09
2023-03-26T09:06:31.224Z,8.24
2023-03-26T09:09:57.073Z,8.16
2023-03-26T09:13:07.703Z,8.09
2023-03-26T09:16:38.263Z,8.01
2023-03-26T09:20:03.869Z,8.51
2023-03-26T09:23:17.637Z,8.65
2023-03-26T09:26:41.004Z,8.47
2023-03-26T09:30:20.987Z,8.45
2023-03-26T09:33:36.350Z,8.57
2023-03-26T09:36:54.981Z,8.64
2023-03-26T09:40:18.854Z,8.44
2023-03-26T09:43:29.309Z,8.59
2023-03-26T09:46:53.252Z,8.63
2023-03-26T09:50:13.447Z,8.79
2023-03-26T09:53:47.979Z,9.05
2023-03-26T09:57:02.809Z,8.98
2023-03-26T10:00:26.777Z,8.73
2023-03-26T10:03:40.180Z,8.96
2023-03-26T10:07:09.474Z,9.05
2023-03-26T10:10:38.121Z,9.12
2023-03-26T10:14:02.952Z,9.06
2023-03-26T10:17:35.283Z,9.17
2023-03-26T10:20:58.760Z,9.57
2023-03-26T10:24:13.160Z,9.53
2023-03-26T10:27:14.491Z,9.38
2023-03-26T10:30:35.791Z,9.76
2023-03-26T10:33:59.173Z,10.23
2023-03-26T10:37:13.869Z,10.73
2023-03-26T10:40:27.508Z,11.07
2023-03-26T10:43:57.861Z,10.80
2023-03-26T10:47:18.472Z,10.42
2023-03-26T10:50:38.477Z,10.22
2023-03-26T10:54:02.766Z,10.26
2023-03-26T10:57:23.073Z,10.10
2023-03-26T11:00:26.302Z,9.86
2023-03-26T11:03:30.768Z,9.51
2023-03-26T11:07:11.748Z,9.46
2023-03-26T11:10:24.947Z,10.08
2023-03-26T11:13:38.457Z,10.37
2023-03-26T11:17:09.806Z,9.82
2023-03-26T11:20:41.525Z,9.76
2023-03-26T11:24:18.317Z,9.97
2023-03-26T11:27:43.462Z,9.89
2023-03-26T11:31:03.071Z,9.79
2023-03-26T11:34:13.129Z,9.77
2023-03-26T11:37:27.291Z,9.89
2023-03-26T11:40:44.054Z,9.62
2023-03-26T11:43:57.570Z,9.40
2023-03-26T11:47:07.607Z,9.93
2023-03-26T11:50:16.408Z,9.56
2023-03-26T11:53:19.995Z,9.61
2023-03-26T11:56:27.415Z,9.19
2023-03-26T11:59:55.399Z,8.59
2023-03-26T12:02:59.384Z,9.17
2023-03-26T12:06:05.849Z,9.46
2023-03-26T12:09:18.665Z,8.95
2023-03-26T12:12:27.586Z,8.75
2023-03-26T12:15:30.732Z,8.97
2023-03-26T12:18:32.284Z,9.04
2023-03-26T12:21:48.303Z,8.70
2023-03-26T12:25:01.369Z,8.35
2023-03-26T12:28:13.116Z,8.99
2023-03-26T12:31:15.801Z,9.15
2023-03-26T12:34:20.146Z,8.89
2023-03-26T12:37:38.919Z,8.63
2023-03-26T12:40:40.465Z,8.71
2023-03-26T12:44:50.880Z,8.92
2023-03-26T12:48:00.517Z,8.83
2023-03-26T12:51:07.081Z,9.00
2023-03-26T12:54:23.685Z,9.14
2023-03-26T12:57:33.910Z,9.21
2023-03-26T13:00:50.513Z,9.25
2023-03-26T13:04:19.856Z,8.87
2023-03-26T13:07:30.153Z,9.26
2023-03-26T13:10:31.514Z,9.32
2023-03-26T13:14:06.823Z,8.69
2023-03-26T13:17:21.929Z,8.49
2023-03-26T13:20:49.304Z,8.56
2023-03-26T13:24:02.223Z,8.30
2023-03-26T13:27:23.361Z,8.33
2023-03-26T13:30:41.150Z,8.45
2023-03-26T13:33:51.472Z,8.52
2023-03-26T13:36:57.516Z,8.69
2023-03-26T13:40:28.169Z,8.43
2023-03-26T13:43:41.430Z,7.97
2023-03-26T13:46:47.204Z,8.06
2023-03-26T13:49:53.765Z,8.57
2023-03-26T13:53:28.503Z,8.26
2023-03-26T13:56:38.150Z,8.56
2023-03-26T14:00:07.509Z,8.38
2023-03-26T14:03:18.662Z,7.67
2023-03-26T14:06:23.132Z,7.97
2023-03-26T14:09:39.574Z,8.21
2023-03-26T14:12:53.015Z,8.02
2023-03-26T14:16:09.087Z,8.08
2023-03-26T14:19:28.926Z,8.41
2023-03-26T14:22:58.187Z,8.49
2023-03-26T14:26:15.085Z,8.34
2023-03-26T14:29:56.904Z,8.26
2023-03-26T14:33:14.153Z,8.14
2023-03-26T14:36:53.613Z,8.15
2023-03-26T14:40:33.504Z,8.13
2023-03-26T14:43:53.638Z,8.06
2023-03-26T14:46:58.136Z,8.11
2023-03-26T14:50:29.557Z,7.98
2023-03-26T14:53:35.347Z,8.02
2023-03-26T14:56:59.791Z,8.14
2023-03-26T15:00:07.252Z,8.47
2023-03-26T15:03:32.054Z,8.52
2023-03-26T15:06:33.436Z,8.72
2023-03-26T15:10:21.368Z,8.74
2023-03-26T15:13:47.930Z,8.71
2023-03-26T15:17:23.555Z,8.38
2023-03-26T15:20:40.267Z,8.07
2023-03-26T15:24:03.429Z,8.00
2023-03-26T15:27:10.518Z,7.77
2023-03-26T15:30:37.782Z,7.64
2023-03-26T15:34:03.741Z,7.61
2023-03-26T15:37:26.993Z,7.71
2023-03-26T15:40:36.811Z,7.75
2023-03-26T15:44:23.396Z,7.77
2023-03-26T15:47:35.812Z,7.73
2023-03-26T15:51:14.740Z,7.80
2023-03-26T15:54:22.785Z,7.81
2023-03-26T15:57:32.273Z,7.76
2023-03-26T16:00:38.133Z,7.66
2023-03-26T16:04:07.666Z,7.59
2023-03-26T16:07:30.452Z,7.55
2023-03-26T16:11:10.529Z,7.46
2023-03-26T16:14:41.976Z,7.39
2023-03-26T16:18:04.741Z,7.33
2023-03-26T16:21:31.242Z,7.26
2023-03-26T16:24:37.649Z,7.21
2023-03-26T16:27:39.675Z,7.10
2023-03-26T16:30:41.313Z,7.03
2023-03-26T16:33:55.467Z,6.98
2023-03-26T16:36:58.877Z,6.86
2023-03-26T16:40:18.628Z,6.57
2023-03-26T16:43:47.874Z,6.65
2023-03-26T16:47:28.036Z,6.58
2023-03-26T16:50:39.897Z,6.56
2023-03-26T16:53:57.872Z,6.55
2023-03-26T16:57:15.219Z,6.48
2023-03-26T17:00:27.787Z,6.49
2023-03-26T17:03:32.132Z,6.43
2023-03-26T17:06:42.367Z,6.40
2023-03-26T17:09:52.592Z,6.25
2023-03-26T17:13:00.126Z,6.18
2023-03-26T17:16:12.736Z,6.09
2023-03-26T17:19:29.168Z,6.03
2023-03-26T17:22:44.469Z,5.94
2023-03-26T17:26:16.342Z,5.84
2023-03-26T17:29:49.481Z,5.70
2023-03-26T17:32:58.777Z,5.65
2023-03-26T17:36:12.528Z,5.59
2023-03-26T17:39:21.539Z,5.31
2023-03-26T17:42:26.248Z,5.37
2023-03-26T17:45:34.024Z,5.34
2023-03-26T17:48:40.186Z,5.23
2023-03-26T17:52:02.810Z,5.16
2023-03-26T17:55:08.068Z,5.08
2023-03-26T17:58:21.521Z,5.02
2023-03-26T18:01:29.468Z,4.95
2023-03-26T18:04:36.324Z,4.91
2023-03-26T18:07:59.438Z,4.86
2023-03-26T18:11:34.249Z,4.78
2023-03-26T18:14:41.447Z,4.78
2023-03-26T18:17:45.040Z,4.72
2023-03-26T18:20:49.574Z,4.71
2023-03-26T18:23:51.377Z,4.66
2023-03-26T18:27:04.826Z,4.68
2023-03-26T18:30:21.264Z,4.60
2023-03-26T18:33:22.762Z,4.59
2023-03-26T18:36:27.009Z,4.56
2023-03-26T18:39:28.787Z,4.55
2023-03-26T18:42:32.412Z,4.52
2023-03-26T18:45:38.806Z,4.52
2023-03-26T18:48:40.496Z,4.55
2023-03-26T18:51:56.198Z,4.50
2023-03-26T18:54:59.416Z,4.45
2023-03-26T18:58:20.714Z,4.38
2023-03-26T19:01:25.905Z,4.31
2023-03-26T19:04:30.472Z,4.23
2023-03-26T19:07:32.294Z,4.15
2023-03-26T19:10:34.044Z,4.10
2023-03-26T19:13:37.485Z,4.04
2023-03-26T19:16:38.948Z,3.78
2023-03-26T19:19:40.416Z,3.82
2023-03-26T19:22:42.789Z,3.79
2023-03-26T19:25:48.061Z,3.78
2023-03-26T19:28:52.210Z,3.70
2023-03-26T19:32:05.156Z,3.66
2023-03-26T19:35:21.289Z,3.54
2023-03-26T19:38:26.585Z,3.54
2023-03-26T19:41:36.731Z,3.50
2023-03-26T19:44:38.941Z,3.41
2023-03-26T19:47:50.547Z,3.38
2023-03-26T19:51:04.565Z,3.30
2023-03-26T19:54:15.654Z,3.23
2023-03-26T19:57:17.187Z,3.15
2023-03-26T20:00:18.861Z,3.15
2023-03-26T20:03:37.828Z,3.11
2023-03-26T20:06:43.608Z,2.99
2023-03-26T20:09:45.548Z,3.00
2023-03-26T20:12:46.999Z,2.97
2023-03-26T20:16:05.541Z,2.92
2023-03-26T20:19:07.743Z,2.87
2023-03-26T20:22:19.562Z,2.84
2023-03-26T20:25:25.229Z,2.83
2023-03-26T20:28:27.442Z,2.77
2023-03-26T20:31:28.899Z,2.72
2023-03-26T20:34:30.373Z,2.67
2023-03-26T20:37:31.818Z,2.65
2023-03-26T20:40:33.255Z,2.60
2023-03-26T20:43:34.698Z,2.54
2023-03-26T20:46:36.105Z,2.50
2023-03-26T20:49:37.544Z,2.48
2023-03-26T20:52:39.261Z,2.38
2023-03-26T20:55:40.778Z,2.33
2023-03-26T20:58:43.670Z,2.28
2023-03-26T21:01:45.700Z,2.20
2023-03-26T21:04:47.111Z,2.18
2023-03-26T21:07:48.746Z,2.15
2023-03-26T21:10:50.488Z,2.14
2023-03-26T21:14:00.866Z,2.08
2023-03-26T21:17:02.633Z,2.06
2023-03-26T21:20:04.790Z,2.04
2023-03-26T21:23:40.068Z,2.04
2023-03-26T21:26:58.587Z,2.04
2023-03-26T21:30:00.511Z,1.99
2023-03-26T21:33:02.048Z,1.97
2023-03-26T21:36:03.845Z,1.97
2023-03-26T21:39:06.518Z,1.93
2023-03-26T21:42:08.287Z,1.91
2023-03-26T21:45:10.607Z,1.87
2023-03-26T21:48:12.396Z,1.84
2023-03-26T21:51:14.231Z,1.82
2023-03-26T21:54:28.018Z,1.81
2023-03-26T21:57:46.103Z,1.79
2023-03-26T22:00:53.959Z,1.77
2023-03-26T22:04:13.412Z,1.74
2023-03-26T22:07:23.025Z,1.72
2023-03-26T22:10:24.524Z,1.70
2023-03-26T22:13:25.966Z,1.68
2023-03-26T22:16:27.482Z,1.67
2023-03-26T22:19:30.379Z,1.62
2023-03-26T22:22:31.993Z,1.57
2023-03-26T22:25:33.449Z,1.57
2023-03-26T22:28:34.871Z,1.49
2023-03-26T22:31:40.322Z,1.46
2023-03-26T22:34:41.740Z,1.43
2023-03-26T22:37:43.328Z,1.42
2023-03-26T22:40:44.765Z,1.41
2023-03-26T22:43:46.202Z,1.37
2023-03-26T22:46:48.385Z,1.37
2023-03-26T22:49:49.833Z,1.33
2023-03-26T22:52:51.493Z,1.27
2023-03-26T22:55:52.944Z,1.23
2023-03-26T22:58:54.369Z,1.19
2023-03-26T23:01:55.967Z,1.17
2023-03-26T23:04:57.420Z,1.15
2023-03-26T23:07:58.866Z,1.15
2023-03-26T23:11:01.067Z,1.14
2023-03-26T23:14:02.497Z,1.08
2023-03-26T23:17:03.941Z,1.07
2023-03-26T23:20:07.689Z,1.02
2023-03-26T23:23:09.126Z,1.02
2023-03-26T23:26:10.971Z,1.03
2023-03-26T23:29:12.395Z,1.00
2023-03-26T23:32:24.285Z,1.01
2023-03-26T23:35:26.464Z,1.00
2023-03-26T23:38:29.030Z,1.00
2023-03-26T23:41:45.513Z,0.96
2023-03-26T23:44:46.938Z,0.95
2023-03-26T23:47:48.344Z,0.93
2023-03-26T23:50:50.974Z,0.91
2023-03-26T23:53:52.359Z,0.93
2023-03-26T23:56:53.775Z,0.97
2023-03-26T23:59:55.206Z,1.04
